< < Back
Terminal Aerodrome Forecast


Current Version              Previous Versions:   1  2  3  4  5  6  7  8  9  

Terminal Aerodrome Forecast

850
FTUS42 KJAX 210100 AAA
TAFSSI
TAF AMD
KSSI 210117Z 2101/2124 02010KT P6SM VCSH BKN007 OVC080
     FM210500 01008KT 6SM BR VCSH OVC006
     FM210900 03007KT 3SM -RA BR OVC005=



Latest METAR

642
SAUS70 KWBC 210400 RRF
MTRSSI
METAR KSSI 210353Z AUTO 04012G20KT 10SM OVC007 13/12 A3016 RMK AO2
SLP211 T01330117


USA.gov is the U.S. government's official web portal to all federal, state and local government web resources and services.